sensor_id;sensor_type;location;lat;lon;timestamp;P1;durP1;ratioP1;P2;durP2;ratioP2
48578;SDS011;34357;51.948;6.132;2023-07-30T00:01:22;10.32;;;5.97;;
48578;SDS011;34357;51.948;6.132;2023-07-30T00:03:47;14.60;;;6.60;;
48578;SDS011;34357;51.948;6.132;2023-07-30T00:06:13;19.00;;;6.50;;
48578;SDS011;34357;51.948;6.132;2023-07-30T00:08:39;17.83;;;6.15;;
48578;SDS011;34357;51.948;6.132;2023-07-30T00:11:05;11.90;;;6.00;;
48578;SDS011;34357;51.948;6.132;2023-07-30T00:13:31;17.35;;;6.60;;
48578;SDS011;34357;51.948;6.132;2023-07-30T00:15:58;14.85;;;6.35;;
48578;SDS011;34357;51.948;6.132;2023-07-30T00:18:23;17.33;;;6.93;;
48578;SDS011;34357;51.948;6.132;2023-07-30T00:20:49;15.63;;;6.80;;
48578;SDS011;34357;51.948;6.132;2023-07-30T00:23:15;13.95;;;6.20;;
48578;SDS011;34357;51.948;6.132;2023-07-30T00:25:41;10.35;;;6.30;;
48578;SDS011;34357;51.948;6.132;2023-07-30T00:28:07;17.23;;;6.00;;
48578;SDS011;34357;51.948;6.132;2023-07-30T00:30:32;11.15;;;6.03;;
48578;SDS011;34357;51.948;6.132;2023-07-30T00:32:58;18.75;;;6.32;;
48578;SDS011;34357;51.948;6.132;2023-07-30T00:35:24;14.55;;;7.05;;
48578;SDS011;34357;51.948;6.132;2023-07-30T00:37:50;15.27;;;6.45;;
48578;SDS011;34357;51.948;6.132;2023-07-30T00:40:16;14.95;;;6.40;;
48578;SDS011;34357;51.948;6.132;2023-07-30T00:42:43;10.65;;;5.75;;
48578;SDS011;34357;51.948;6.132;2023-07-30T00:45:09;13.05;;;6.28;;
48578;SDS011;34357;51.948;6.132;2023-07-30T00:47:36;12.32;;;5.75;;
48578;SDS011;34357;51.948;6.132;2023-07-30T00:50:03;14.60;;;6.10;;
48578;SDS011;34357;51.948;6.132;2023-07-30T00:52:30;18.30;;;5.93;;
48578;SDS011;34357;51.948;6.132;2023-07-30T00:54:59;12.82;;;5.85;;
48578;SDS011;34357;51.948;6.132;2023-07-30T00:57:28;13.02;;;6.07;;
48578;SDS011;34357;51.948;6.132;2023-07-30T00:59:56;14.00;;;6.03;;
48578;SDS011;34357;51.948;6.132;2023-07-30T01:02:23;13.20;;;5.97;;
48578;SDS011;34357;51.948;6.132;2023-07-30T01:04:49;14.45;;;5.88;;
48578;SDS011;34357;51.948;6.132;2023-07-30T01:07:15;14.43;;;6.00;;
48578;SDS011;34357;51.948;6.132;2023-07-30T01:09:41;18.65;;;5.97;;
48578;SDS011;34357;51.948;6.132;2023-07-30T01:12:07;12.77;;;5.30;;
48578;SDS011;34357;51.948;6.132;2023-07-30T01:14:34;12.63;;;5.43;;
48578;SDS011;34357;51.948;6.132;2023-07-30T01:17:03;14.75;;;5.75;;
48578;SDS011;34357;51.948;6.132;2023-07-30T01:19:30;12.13;;;5.20;;
48578;SDS011;34357;51.948;6.132;2023-07-30T01:21:56;17.50;;;6.18;;
48578;SDS011;34357;51.948;6.132;2023-07-30T01:24:23;16.75;;;5.28;;
48578;SDS011;34357;51.948;6.132;2023-07-30T01:26:54;11.95;;;5.18;;
48578;SDS011;34357;51.948;6.132;2023-07-30T01:29:27;13.63;;;5.25;;
48578;SDS011;34357;51.948;6.132;2023-07-30T01:32:07;10.18;;;5.10;;
48578;SDS011;34357;51.948;6.132;2023-07-30T01:34:36;13.52;;;5.35;;
48578;SDS011;34357;51.948;6.132;2023-07-30T01:37:09;13.60;;;5.63;;
48578;SDS011;34357;51.948;6.132;2023-07-30T01:39:37;13.55;;;5.57;;
48578;SDS011;34357;51.948;6.132;2023-07-30T01:42:04;12.00;;;5.80;;
48578;SDS011;34357;51.948;6.132;2023-07-30T01:44:30;10.88;;;5.05;;
48578;SDS011;34357;51.948;6.132;2023-07-30T01:46:57;14.50;;;5.65;;
48578;SDS011;34357;51.948;6.132;2023-07-30T01:49:23;18.35;;;5.20;;
48578;SDS011;34357;51.948;6.132;2023-07-30T01:51:48;12.32;;;5.57;;
48578;SDS011;34357;51.948;6.132;2023-07-30T01:54:14;12.75;;;5.38;;
48578;SDS011;34357;51.948;6.132;2023-07-30T01:56:40;13.55;;;5.72;;
48578;SDS011;34357;51.948;6.132;2023-07-30T01:59:06;13.27;;;5.60;;
48578;SDS011;34357;51.948;6.132;2023-07-30T02:01:32;12.52;;;5.10;;
48578;SDS011;34357;51.948;6.132;2023-07-30T02:03:59;13.80;;;5.38;;
48578;SDS011;34357;51.948;6.132;2023-07-30T02:06:24;14.68;;;5.13;;
48578;SDS011;34357;51.948;6.132;2023-07-30T02:08:50;9.82;;;4.22;;
48578;SDS011;34357;51.948;6.132;2023-07-30T02:11:16;11.90;;;4.28;;
48578;SDS011;34357;51.948;6.132;2023-07-30T02:13:42;10.90;;;4.32;;
48578;SDS011;34357;51.948;6.132;2023-07-30T02:16:08;19.15;;;4.90;;
48578;SDS011;34357;51.948;6.132;2023-07-30T02:18:34;8.57;;;4.30;;
48578;SDS011;34357;51.948;6.132;2023-07-30T02:21:00;12.85;;;4.95;;
48578;SDS011;34357;51.948;6.132;2023-07-30T02:23:26;14.32;;;4.68;;
48578;SDS011;34357;51.948;6.132;2023-07-30T02:25:52;10.32;;;4.05;;
48578;SDS011;34357;51.948;6.132;2023-07-30T02:28:18;17.95;;;4.13;;
48578;SDS011;34357;51.948;6.132;2023-07-30T02:30:44;17.23;;;4.60;;
48578;SDS011;34357;51.948;6.132;2023-07-30T02:33:10;15.52;;;4.65;;
48578;SDS011;34357;51.948;6.132;2023-07-30T02:35:36;12.18;;;4.43;;
48578;SDS011;34357;51.948;6.132;2023-07-30T02:38:02;9.02;;;3.80;;
48578;SDS011;34357;51.948;6.132;2023-07-30T02:40:28;13.98;;;4.65;;
48578;SDS011;34357;51.948;6.132;2023-07-30T02:42:54;14.80;;;4.60;;
48578;SDS011;34357;51.948;6.132;2023-07-30T02:45:20;17.08;;;5.28;;
48578;SDS011;34357;51.948;6.132;2023-07-30T02:47:46;14.25;;;4.47;;
48578;SDS011;34357;51.948;6.132;2023-07-30T02:50:12;13.90;;;4.22;;
48578;SDS011;34357;51.948;6.132;2023-07-30T02:52:38;14.95;;;4.63;;
48578;SDS011;34357;51.948;6.132;2023-07-30T02:55:04;18.17;;;4.90;;
48578;SDS011;34357;51.948;6.132;2023-07-30T02:57:30;14.18;;;4.47;;
48578;SDS011;34357;51.948;6.132;2023-07-30T02:59:56;14.38;;;4.03;;
48578;SDS011;34357;51.948;6.132;2023-07-30T03:02:22;10.90;;;4.50;;
48578;SDS011;34357;51.948;6.132;2023-07-30T03:04:48;14.50;;;5.10;;
48578;SDS011;34357;51.948;6.132;2023-07-30T03:07:14;19.58;;;6.20;;
48578;SDS011;34357;51.948;6.132;2023-07-30T03:09:40;14.18;;;5.10;;
48578;SDS011;34357;51.948;6.132;2023-07-30T03:12:06;15.60;;;5.90;;
48578;SDS011;34357;51.948;6.132;2023-07-30T03:14:32;24.85;;;6.13;;
48578;SDS011;34357;51.948;6.132;2023-07-30T03:16:58;23.75;;;5.90;;
48578;SDS011;34357;51.948;6.132;2023-07-30T03:19:24;17.33;;;6.35;;
48578;SDS011;34357;51.948;6.132;2023-07-30T03:21:49;20.95;;;6.88;;
48578;SDS011;34357;51.948;6.132;2023-07-30T03:24:15;19.30;;;7.57;;
48578;SDS011;34357;51.948;6.132;2023-07-30T03:26:41;21.30;;;6.68;;
48578;SDS011;34357;51.948;6.132;2023-07-30T03:29:07;21.63;;;7.28;;
48578;SDS011;34357;51.948;6.132;2023-07-30T03:31:33;27.70;;;8.15;;
48578;SDS011;34357;51.948;6.132;2023-07-30T03:33:59;22.45;;;7.97;;
48578;SDS011;34357;51.948;6.132;2023-07-30T03:36:25;21.20;;;7.65;;
48578;SDS011;34357;51.948;6.132;2023-07-30T03:38:51;18.13;;;8.05;;
48578;SDS011;34357;51.948;6.132;2023-07-30T03:41:16;24.48;;;7.68;;
48578;SDS011;34357;51.948;6.132;2023-07-30T03:43:42;27.58;;;8.57;;
48578;SDS011;34357;51.948;6.132;2023-07-30T03:46:08;23.55;;;8.80;;
48578;SDS011;34357;51.948;6.132;2023-07-30T03:48:34;26.75;;;8.70;;
48578;SDS011;34357;51.948;6.132;2023-07-30T03:51:00;18.98;;;8.30;;
48578;SDS011;34357;51.948;6.132;2023-07-30T03:53:26;14.90;;;7.88;;
48578;SDS011;34357;51.948;6.132;2023-07-30T03:55:52;21.88;;;8.00;;
48578;SDS011;34357;51.948;6.132;2023-07-30T03:58:18;24.20;;;9.27;;
48578;SDS011;34357;51.948;6.132;2023-07-30T04:00:44;26.85;;;8.93;;
48578;SDS011;34357;51.948;6.132;2023-07-30T04:03:10;25.65;;;8.95;;
48578;SDS011;34357;51.948;6.132;2023-07-30T04:05:36;21.83;;;9.23;;
48578;SDS011;34357;51.948;6.132;2023-07-30T04:08:02;24.52;;;9.35;;
48578;SDS011;34357;51.948;6.132;2023-07-30T04:10:28;27.60;;;9.27;;
48578;SDS011;34357;51.948;6.132;2023-07-30T04:12:54;30.00;;;10.77;;
48578;SDS011;34357;51.948;6.132;2023-07-30T04:15:20;27.42;;;9.73;;
48578;SDS011;34357;51.948;6.132;2023-07-30T04:17:46;28.48;;;10.68;;
48578;SDS011;34357;51.948;6.132;2023-07-30T04:20:12;28.55;;;10.05;;
48578;SDS011;34357;51.948;6.132;2023-07-30T04:22:38;31.40;;;10.15;;
48578;SDS011;34357;51.948;6.132;2023-07-30T04:25:07;35.97;;;11.38;;
48578;SDS011;34357;51.948;6.132;2023-07-30T04:27:33;31.95;;;11.15;;
48578;SDS011;34357;51.948;6.132;2023-07-30T04:29:59;24.73;;;9.27;;
48578;SDS011;34357;51.948;6.132;2023-07-30T04:32:25;31.60;;;11.48;;
48578;SDS011;34357;51.948;6.132;2023-07-30T04:34:51;36.92;;;11.98;;
48578;SDS011;34357;51.948;6.132;2023-07-30T04:37:17;38.70;;;11.55;;
48578;SDS011;34357;51.948;6.132;2023-07-30T04:39:43;30.08;;;11.35;;
48578;SDS011;34357;51.948;6.132;2023-07-30T04:42:09;35.35;;;12.68;;
48578;SDS011;34357;51.948;6.132;2023-07-30T04:44:35;36.00;;;11.85;;
48578;SDS011;34357;51.948;6.132;2023-07-30T04:47:09;33.45;;;11.23;;
48578;SDS011;34357;51.948;6.132;2023-07-30T04:49:35;31.40;;;11.35;;
48578;SDS011;34357;51.948;6.132;2023-07-30T04:52:02;31.08;;;12.25;;
48578;SDS011;34357;51.948;6.132;2023-07-30T04:54:29;37.58;;;12.15;;
48578;SDS011;34357;51.948;6.132;2023-07-30T04:56:54;34.03;;;12.35;;
48578;SDS011;34357;51.948;6.132;2023-07-30T04:59:20;35.20;;;12.32;;
48578;SDS011;34357;51.948;6.132;2023-07-30T05:01:46;37.45;;;12.75;;
48578;SDS011;34357;51.948;6.132;2023-07-30T05:04:12;41.53;;;12.10;;
48578;SDS011;34357;51.948;6.132;2023-07-30T05:06:38;37.10;;;12.20;;
48578;SDS011;34357;51.948;6.132;2023-07-30T05:09:04;37.22;;;11.48;;
48578;SDS011;34357;51.948;6.132;2023-07-30T05:11:30;36.35;;;13.82;;
48578;SDS011;34357;51.948;6.132;2023-07-30T05:13:56;37.38;;;11.68;;
48578;SDS011;34357;51.948;6.132;2023-07-30T05:16:22;35.53;;;11.93;;
48578;SDS011;34357;51.948;6.132;2023-07-30T05:18:47;34.65;;;11.70;;
48578;SDS011;34357;51.948;6.132;2023-07-30T05:21:13;42.45;;;13.25;;
48578;SDS011;34357;51.948;6.132;2023-07-30T05:23:39;36.10;;;12.20;;
48578;SDS011;34357;51.948;6.132;2023-07-30T05:26:05;38.65;;;13.00;;
48578;SDS011;34357;51.948;6.132;2023-07-30T05:28:30;36.08;;;12.80;;
48578;SDS011;34357;51.948;6.132;2023-07-30T05:30:58;40.55;;;12.90;;
48578;SDS011;34357;51.948;6.132;2023-07-30T05:33:24;30.45;;;12.00;;
48578;SDS011;34357;51.948;6.132;2023-07-30T05:35:50;34.40;;;13.38;;
48578;SDS011;34357;51.948;6.132;2023-07-30T05:38:15;35.17;;;13.90;;
48578;SDS011;34357;51.948;6.132;2023-07-30T05:40:41;35.80;;;13.75;;
48578;SDS011;34357;51.948;6.132;2023-07-30T05:43:07;28.92;;;12.90;;
48578;SDS011;34357;51.948;6.132;2023-07-30T05:45:33;33.05;;;13.50;;
48578;SDS011;34357;51.948;6.132;2023-07-30T05:47:59;33.17;;;13.38;;
48578;SDS011;34357;51.948;6.132;2023-07-30T05:50:25;35.17;;;12.52;;
48578;SDS011;34357;51.948;6.132;2023-07-30T05:52:51;40.72;;;14.20;;
48578;SDS011;34357;51.948;6.132;2023-07-30T05:55:17;29.88;;;12.95;;
48578;SDS011;34357;51.948;6.132;2023-07-30T05:57:43;52.20;;;15.20;;
48578;SDS011;34357;51.948;6.132;2023-07-30T06:00:09;38.15;;;14.35;;
48578;SDS011;34357;51.948;6.132;2023-07-30T06:02:38;39.55;;;13.63;;
48578;SDS011;34357;51.948;6.132;2023-07-30T06:05:04;39.33;;;13.63;;
48578;SDS011;34357;51.948;6.132;2023-07-30T06:07:30;38.30;;;14.95;;
48578;SDS011;34357;51.948;6.132;2023-07-30T06:09:55;26.27;;;12.70;;
48578;SDS011;34357;51.948;6.132;2023-07-30T06:12:21;39.53;;;13.10;;
48578;SDS011;34357;51.948;6.132;2023-07-30T06:14:47;33.40;;;13.80;;
48578;SDS011;34357;51.948;6.132;2023-07-30T06:17:13;33.97;;;13.35;;
48578;SDS011;34357;51.948;6.132;2023-07-30T06:19:39;40.55;;;14.35;;
48578;SDS011;34357;51.948;6.132;2023-07-30T06:22:05;31.60;;;12.70;;
48578;SDS011;34357;51.948;6.132;2023-07-30T06:24:31;40.83;;;13.70;;
48578;SDS011;34357;51.948;6.132;2023-07-30T06:26:57;37.33;;;13.57;;
48578;SDS011;34357;51.948;6.132;2023-07-30T06:29:22;34.65;;;13.02;;
48578;SDS011;34357;51.948;6.132;2023-07-30T06:31:48;42.90;;;14.68;;
48578;SDS011;34357;51.948;6.132;2023-07-30T06:34:14;41.28;;;14.68;;
48578;SDS011;34357;51.948;6.132;2023-07-30T06:36:40;36.15;;;14.02;;
48578;SDS011;34357;51.948;6.132;2023-07-30T06:39:06;37.83;;;14.60;;
48578;SDS011;34357;51.948;6.132;2023-07-30T06:41:32;44.38;;;14.27;;
48578;SDS011;34357;51.948;6.132;2023-07-30T06:43:58;32.35;;;13.05;;
48578;SDS011;34357;51.948;6.132;2023-07-30T06:46:24;36.53;;;13.40;;
48578;SDS011;34357;51.948;6.132;2023-07-30T06:48:50;35.95;;;12.70;;
48578;SDS011;34357;51.948;6.132;2023-07-30T06:51:18;34.42;;;11.68;;
48578;SDS011;34357;51.948;6.132;2023-07-30T06:53:45;41.17;;;12.98;;
48578;SDS011;34357;51.948;6.132;2023-07-30T06:56:11;31.00;;;11.82;;
48578;SDS011;34357;51.948;6.132;2023-07-30T06:58:37;31.88;;;11.68;;
48578;SDS011;34357;51.948;6.132;2023-07-30T07:01:02;38.42;;;11.30;;
48578;SDS011;34357;51.948;6.132;2023-07-30T07:03:28;30.63;;;11.88;;
48578;SDS011;34357;51.948;6.132;2023-07-30T07:05:54;31.38;;;11.15;;
48578;SDS011;34357;51.948;6.132;2023-07-30T07:08:21;29.40;;;11.77;;
48578;SDS011;34357;51.948;6.132;2023-07-30T07:10:47;34.97;;;12.25;;
48578;SDS011;34357;51.948;6.132;2023-07-30T07:13:13;30.63;;;10.98;;
48578;SDS011;34357;51.948;6.132;2023-07-30T07:15:42;41.42;;;13.10;;
48578;SDS011;34357;51.948;6.132;2023-07-30T07:18:08;33.45;;;13.73;;
48578;SDS011;34357;51.948;6.132;2023-07-30T07:20:34;37.90;;;13.30;;
48578;SDS011;34357;51.948;6.132;2023-07-30T07:23:00;35.75;;;12.77;;
48578;SDS011;34357;51.948;6.132;2023-07-30T07:25:26;33.50;;;12.85;;
48578;SDS011;34357;51.948;6.132;2023-07-30T07:27:52;36.17;;;12.32;;
48578;SDS011;34357;51.948;6.132;2023-07-30T07:30:18;31.38;;;10.95;;
48578;SDS011;34357;51.948;6.132;2023-07-30T07:32:43;34.35;;;12.07;;
48578;SDS011;34357;51.948;6.132;2023-07-30T07:35:09;31.20;;;11.13;;
48578;SDS011;34357;51.948;6.132;2023-07-30T07:37:35;30.40;;;12.63;;
48578;SDS011;34357;51.948;6.132;2023-07-30T07:40:01;41.67;;;13.32;;
48578;SDS011;34357;51.948;6.132;2023-07-30T07:42:29;37.40;;;12.85;;
48578;SDS011;34357;51.948;6.132;2023-07-30T07:44:56;31.83;;;11.90;;
48578;SDS011;34357;51.948;6.132;2023-07-30T07:47:22;28.50;;;11.75;;
48578;SDS011;34357;51.948;6.132;2023-07-30T07:49:47;31.40;;;11.45;;
48578;SDS011;34357;51.948;6.132;2023-07-30T07:52:14;31.08;;;11.30;;
48578;SDS011;34357;51.948;6.132;2023-07-30T07:54:40;30.75;;;11.45;;
48578;SDS011;34357;51.948;6.132;2023-07-30T07:57:07;26.00;;;10.20;;
48578;SDS011;34357;51.948;6.132;2023-07-30T07:59:33;28.85;;;10.00;;
48578;SDS011;34357;51.948;6.132;2023-07-30T08:01:59;33.33;;;9.95;;
48578;SDS011;34357;51.948;6.132;2023-07-30T08:04:25;30.33;;;9.18;;
48578;SDS011;34357;51.948;6.132;2023-07-30T08:06:51;25.88;;;8.27;;
48578;SDS011;34357;51.948;6.132;2023-07-30T08:09:17;22.88;;;8.00;;
48578;SDS011;34357;51.948;6.132;2023-07-30T08:11:42;18.90;;;6.40;;
48578;SDS011;34357;51.948;6.132;2023-07-30T08:14:08;25.77;;;6.70;;
48578;SDS011;34357;51.948;6.132;2023-07-30T08:16:34;21.60;;;6.70;;
48578;SDS011;34357;51.948;6.132;2023-07-30T08:19:00;23.33;;;6.30;;
48578;SDS011;34357;51.948;6.132;2023-07-30T08:21:26;22.70;;;5.68;;
48578;SDS011;34357;51.948;6.132;2023-07-30T08:23:51;22.35;;;5.88;;
48578;SDS011;34357;51.948;6.132;2023-07-30T08:26:17;21.17;;;5.30;;
48578;SDS011;34357;51.948;6.132;2023-07-30T08:28:43;19.85;;;5.20;;
48578;SDS011;34357;51.948;6.132;2023-07-30T08:31:09;20.83;;;5.63;;
48578;SDS011;34357;51.948;6.132;2023-07-30T08:33:34;13.45;;;3.58;;
48578;SDS011;34357;51.948;6.132;2023-07-30T08:36:00;22.50;;;4.82;;
48578;SDS011;34357;51.948;6.132;2023-07-30T08:38:27;24.30;;;5.60;;
48578;SDS011;34357;51.948;6.132;2023-07-30T08:40:54;16.10;;;4.38;;
48578;SDS011;34357;51.948;6.132;2023-07-30T08:43:19;20.90;;;4.82;;
48578;SDS011;34357;51.948;6.132;2023-07-30T08:45:45;20.88;;;4.50;;
48578;SDS011;34357;51.948;6.132;2023-07-30T08:48:11;17.58;;;4.82;;
48578;SDS011;34357;51.948;6.132;2023-07-30T08:50:37;20.25;;;4.00;;
48578;SDS011;34357;51.948;6.132;2023-07-30T08:53:05;19.42;;;4.68;;
48578;SDS011;34357;51.948;6.132;2023-07-30T08:55:33;22.55;;;4.53;;
48578;SDS011;34357;51.948;6.132;2023-07-30T08:57:59;20.40;;;4.47;;
48578;SDS011;34357;51.948;6.132;2023-07-30T09:00:28;19.30;;;4.88;;
48578;SDS011;34357;51.948;6.132;2023-07-30T09:05:25;19.23;;;4.43;;
48578;SDS011;34357;51.948;6.132;2023-07-30T09:07:54;18.98;;;5.07;;
48578;SDS011;34357;51.948;6.132;2023-07-30T09:10:21;22.52;;;4.55;;
48578;SDS011;34357;51.948;6.132;2023-07-30T09:12:52;21.20;;;4.70;;
48578;SDS011;34357;51.948;6.132;2023-07-30T09:15:20;23.33;;;5.20;;
48578;SDS011;34357;51.948;6.132;2023-07-30T09:17:57;23.75;;;4.97;;
48578;SDS011;34357;51.948;6.132;2023-07-30T09:20:24;19.08;;;4.88;;
48578;SDS011;34357;51.948;6.132;2023-07-30T09:22:49;19.00;;;4.25;;
48578;SDS011;34357;51.948;6.132;2023-07-30T09:25:17;22.38;;;4.50;;
48578;SDS011;34357;51.948;6.132;2023-07-30T09:27:50;19.25;;;4.50;;
48578;SDS011;34357;51.948;6.132;2023-07-30T09:30:21;17.00;;;3.80;;
48578;SDS011;34357;51.948;6.132;2023-07-30T09:32:50;20.52;;;4.25;;
48578;SDS011;34357;51.948;6.132;2023-07-30T09:35:18;24.65;;;4.70;;
48578;SDS011;34357;51.948;6.132;2023-07-30T09:37:44;17.50;;;3.67;;
48578;SDS011;34357;51.948;6.132;2023-07-30T09:40:11;17.23;;;4.63;;
48578;SDS011;34357;51.948;6.132;2023-07-30T09:42:41;26.00;;;5.00;;
48578;SDS011;34357;51.948;6.132;2023-07-30T09:45:08;16.13;;;3.72;;
48578;SDS011;34357;51.948;6.132;2023-07-30T09:47:50;20.60;;;4.57;;
48578;SDS011;34357;51.948;6.132;2023-07-30T09:50:17;18.57;;;3.80;;
48578;SDS011;34357;51.948;6.132;2023-07-30T09:52:43;22.08;;;4.25;;
48578;SDS011;34357;51.948;6.132;2023-07-30T09:55:09;16.17;;;4.20;;
48578;SDS011;34357;51.948;6.132;2023-07-30T09:57:38;23.73;;;3.70;;
48578;SDS011;34357;51.948;6.132;2023-07-30T10:00:04;17.90;;;3.53;;
48578;SDS011;34357;51.948;6.132;2023-07-30T10:02:35;14.98;;;3.30;;
48578;SDS011;34357;51.948;6.132;2023-07-30T10:05:05;15.93;;;2.90;;
48578;SDS011;34357;51.948;6.132;2023-07-30T10:07:36;14.73;;;3.03;;
48578;SDS011;34357;51.948;6.132;2023-07-30T10:10:06;19.98;;;3.10;;
48578;SDS011;34357;51.948;6.132;2023-07-30T10:12:32;15.35;;;3.47;;
48578;SDS011;34357;51.948;6.132;2023-07-30T10:15:01;20.45;;;3.65;;
48578;SDS011;34357;51.948;6.132;2023-07-30T10:17:27;22.65;;;3.38;;
48578;SDS011;34357;51.948;6.132;2023-07-30T10:19:56;20.67;;;3.15;;
48578;SDS011;34357;51.948;6.132;2023-07-30T10:22:22;13.90;;;3.28;;
48578;SDS011;34357;51.948;6.132;2023-07-30T10:27:23;15.52;;;3.53;;
48578;SDS011;34357;51.948;6.132;2023-07-30T10:30:07;14.52;;;3.08;;
48578;SDS011;34357;51.948;6.132;2023-07-30T10:32:37;15.07;;;3.20;;
48578;SDS011;34357;51.948;6.132;2023-07-30T10:35:44;20.33;;;3.93;;
48578;SDS011;34357;51.948;6.132;2023-07-30T10:38:14;18.65;;;3.33;;
48578;SDS011;34357;51.948;6.132;2023-07-30T10:43:45;12.23;;;2.97;;
48578;SDS011;34357;51.948;6.132;2023-07-30T10:46:14;12.38;;;2.65;;
48578;SDS011;34357;51.948;6.132;2023-07-30T10:48:42;16.17;;;3.05;;
48578;SDS011;34357;51.948;6.132;2023-07-30T10:51:12;11.57;;;3.15;;
48578;SDS011;34357;51.948;6.132;2023-07-30T10:53:49;15.75;;;3.20;;
48578;SDS011;34357;51.948;6.132;2023-07-30T10:56:16;9.68;;;2.28;;
48578;SDS011;34357;51.948;6.132;2023-07-30T10:58:48;11.30;;;2.10;;
48578;SDS011;34357;51.948;6.132;2023-07-30T11:01:15;11.18;;;2.10;;
48578;SDS011;34357;51.948;6.132;2023-07-30T11:03:41;11.00;;;1.80;;
48578;SDS011;34357;51.948;6.132;2023-07-30T11:06:07;7.50;;;2.15;;
48578;SDS011;34357;51.948;6.132;2023-07-30T11:08:42;9.27;;;2.13;;
48578;SDS011;34357;51.948;6.132;2023-07-30T11:11:09;8.43;;;2.00;;
48578;SDS011;34357;51.948;6.132;2023-07-30T11:13:36;9.48;;;2.22;;
48578;SDS011;34357;51.948;6.132;2023-07-30T11:16:04;9.65;;;1.55;;
48578;SDS011;34357;51.948;6.132;2023-07-30T11:18:34;9.25;;;2.05;;
48578;SDS011;34357;51.948;6.132;2023-07-30T11:21:04;9.55;;;2.58;;
48578;SDS011;34357;51.948;6.132;2023-07-30T11:23:38;8.30;;;1.65;;
48578;SDS011;34357;51.948;6.132;2023-07-30T11:26:05;9.32;;;1.45;;
48578;SDS011;34357;51.948;6.132;2023-07-30T11:28:35;4.35;;;1.15;;
48578;SDS011;34357;51.948;6.132;2023-07-30T11:31:06;9.68;;;2.15;;
48578;SDS011;34357;51.948;6.132;2023-07-30T11:33:41;5.43;;;1.60;;
48578;SDS011;34357;51.948;6.132;2023-07-30T11:36:15;7.85;;;1.70;;
48578;SDS011;34357;51.948;6.132;2023-07-30T11:38:44;6.75;;;1.83;;
48578;SDS011;34357;51.948;6.132;2023-07-30T11:41:11;11.45;;;1.98;;
48578;SDS011;34357;51.948;6.132;2023-07-30T11:43:38;9.35;;;2.30;;
48578;SDS011;34357;51.948;6.132;2023-07-30T11:48:41;5.82;;;1.73;;
48578;SDS011;34357;51.948;6.132;2023-07-30T11:51:17;6.80;;;1.48;;
48578;SDS011;34357;51.948;6.132;2023-07-30T11:56:23;8.10;;;1.25;;
48578;SDS011;34357;51.948;6.132;2023-07-30T11:58:51;11.30;;;2.17;;
48578;SDS011;34357;51.948;6.132;2023-07-30T12:01:24;11.18;;;2.22;;
48578;SDS011;34357;51.948;6.132;2023-07-30T12:03:57;9.77;;;1.98;;
48578;SDS011;34357;51.948;6.132;2023-07-30T12:06:24;9.77;;;2.00;;
48578;SDS011;34357;51.948;6.132;2023-07-30T12:09:09;7.93;;;1.70;;
48578;SDS011;34357;51.948;6.132;2023-07-30T12:11:47;15.77;;;2.47;;
48578;SDS011;34357;51.948;6.132;2023-07-30T12:14:19;9.80;;;2.25;;
48578;SDS011;34357;51.948;6.132;2023-07-30T12:16:46;12.18;;;2.63;;
48578;SDS011;34357;51.948;6.132;2023-07-30T12:19:12;12.43;;;1.95;;
48578;SDS011;34357;51.948;6.132;2023-07-30T12:21:38;10.18;;;2.35;;
48578;SDS011;34357;51.948;6.132;2023-07-30T12:24:04;13.10;;;1.90;;
48578;SDS011;34357;51.948;6.132;2023-07-30T12:26:30;7.75;;;1.70;;
48578;SDS011;34357;51.948;6.132;2023-07-30T12:28:56;11.82;;;2.00;;
48578;SDS011;34357;51.948;6.132;2023-07-30T12:31:22;10.90;;;1.88;;
48578;SDS011;34357;51.948;6.132;2023-07-30T12:33:48;9.93;;;1.67;;
48578;SDS011;34357;51.948;6.132;2023-07-30T12:36:13;9.90;;;1.58;;
48578;SDS011;34357;51.948;6.132;2023-07-30T12:38:39;7.10;;;1.30;;
48578;SDS011;34357;51.948;6.132;2023-07-30T12:41:05;10.05;;;2.20;;
48578;SDS011;34357;51.948;6.132;2023-07-30T12:43:31;11.88;;;1.90;;
48578;SDS011;34357;51.948;6.132;2023-07-30T12:45:57;12.45;;;1.90;;
48578;SDS011;34357;51.948;6.132;2023-07-30T12:48:22;12.80;;;1.77;;
48578;SDS011;34357;51.948;6.132;2023-07-30T12:50:48;5.97;;;1.35;;
48578;SDS011;34357;51.948;6.132;2023-07-30T12:53:14;6.65;;;1.27;;
48578;SDS011;34357;51.948;6.132;2023-07-30T12:55:40;7.30;;;1.70;;
48578;SDS011;34357;51.948;6.132;2023-07-30T12:58:05;9.63;;;1.95;;
48578;SDS011;34357;51.948;6.132;2023-07-30T13:00:31;8.68;;;1.65;;
48578;SDS011;34357;51.948;6.132;2023-07-30T13:02:58;6.20;;;1.42;;
48578;SDS011;34357;51.948;6.132;2023-07-30T13:05:24;9.52;;;1.35;;
48578;SDS011;34357;51.948;6.132;2023-07-30T13:07:50;4.53;;;1.17;;
48578;SDS011;34357;51.948;6.132;2023-07-30T13:10:16;6.30;;;1.25;;
48578;SDS011;34357;51.948;6.132;2023-07-30T13:12:42;4.60;;;1.00;;
48578;SDS011;34357;51.948;6.132;2023-07-30T13:15:07;5.82;;;0.95;;
48578;SDS011;34357;51.948;6.132;2023-07-30T13:17:33;4.22;;;0.80;;
48578;SDS011;34357;51.948;6.132;2023-07-30T13:19:59;5.22;;;1.08;;
48578;SDS011;34357;51.948;6.132;2023-07-30T13:22:25;3.20;;;1.10;;
48578;SDS011;34357;51.948;6.132;2023-07-30T13:24:51;4.90;;;1.05;;
48578;SDS011;34357;51.948;6.132;2023-07-30T13:27:17;7.82;;;1.45;;
48578;SDS011;34357;51.948;6.132;2023-07-30T13:29:43;6.95;;;1.20;;
48578;SDS011;34357;51.948;6.132;2023-07-30T13:32:09;5.25;;;1.17;;
48578;SDS011;34357;51.948;6.132;2023-07-30T13:34:35;5.10;;;1.02;;
48578;SDS011;34357;51.948;6.132;2023-07-30T13:37:00;6.40;;;1.08;;
48578;SDS011;34357;51.948;6.132;2023-07-30T13:39:27;9.57;;;1.00;;
48578;SDS011;34357;51.948;6.132;2023-07-30T13:41:53;4.28;;;0.88;;
48578;SDS011;34357;51.948;6.132;2023-07-30T13:44:19;5.20;;;1.02;;
48578;SDS011;34357;51.948;6.132;2023-07-30T13:46:45;4.85;;;1.33;;
48578;SDS011;34357;51.948;6.132;2023-07-30T13:49:11;5.97;;;1.10;;
48578;SDS011;34357;51.948;6.132;2023-07-30T13:51:37;5.10;;;0.90;;
48578;SDS011;34357;51.948;6.132;2023-07-30T13:54:02;4.18;;;1.00;;
48578;SDS011;34357;51.948;6.132;2023-07-30T13:56:30;4.38;;;0.90;;
48578;SDS011;34357;51.948;6.132;2023-07-30T13:58:56;4.65;;;0.85;;
48578;SDS011;34357;51.948;6.132;2023-07-30T14:01:22;6.40;;;0.90;;
48578;SDS011;34357;51.948;6.132;2023-07-30T14:03:47;4.28;;;0.70;;
48578;SDS011;34357;51.948;6.132;2023-07-30T14:06:16;5.15;;;0.70;;
48578;SDS011;34357;51.948;6.132;2023-07-30T14:08:42;1.63;;;0.60;;
48578;SDS011;34357;51.948;6.132;2023-07-30T14:11:08;3.25;;;0.80;;
48578;SDS011;34357;51.948;6.132;2023-07-30T14:13:34;4.22;;;0.90;;
48578;SDS011;34357;51.948;6.132;2023-07-30T14:16:00;3.97;;;0.70;;
48578;SDS011;34357;51.948;6.132;2023-07-30T14:18:25;2.17;;;0.68;;
48578;SDS011;34357;51.948;6.132;2023-07-30T14:20:51;4.90;;;0.70;;
48578;SDS011;34357;51.948;6.132;2023-07-30T14:23:17;4.20;;;0.90;;
48578;SDS011;34357;51.948;6.132;2023-07-30T14:25:43;4.65;;;0.82;;
48578;SDS011;34357;51.948;6.132;2023-07-30T14:28:09;3.20;;;0.70;;
48578;SDS011;34357;51.948;6.132;2023-07-30T14:30:35;4.38;;;0.82;;
48578;SDS011;34357;51.948;6.132;2023-07-30T14:33:02;5.20;;;0.90;;
48578;SDS011;34357;51.948;6.132;2023-07-30T14:35:28;3.70;;;0.90;;
48578;SDS011;34357;51.948;6.132;2023-07-30T14:37:54;4.00;;;0.82;;
48578;SDS011;34357;51.948;6.132;2023-07-30T14:40:20;5.85;;;1.10;;
48578;SDS011;34357;51.948;6.132;2023-07-30T14:42:47;3.28;;;1.23;;
48578;SDS011;34357;51.948;6.132;2023-07-30T14:45:12;4.45;;;0.93;;